Time;durP1;ratioP1;P1;durP2;ratioP2;P2;SDS_P1;SDS_P2;PMS_P1;PMS_P2;Temp;Humidity;BMP_temperature;BMP_pressure;BME280_temperature;BME280_humidity;BME280_pressure;Samples;Min_cycle;Max_cycle;Signal;HPM_P1;HPM_P2
2021/07/15 00:00:37;;;;;;;29.48;14.07;;;;;;;;;;5012444;28;20014;-66
2021/07/15 00:03:06;;;;;;;32.97;12.90;;;;;;;;;;5012722;28;20020;-66
2021/07/15 00:05:32;;;;;;;33.43;13.73;;;;;;;;;;5012655;28;20490;-66
2021/07/15 00:07:59;;;;;;;35.03;13.23;;;;;;;;;;5015426;28;20022;-66
2021/07/15 00:10:44;;;;;;;23.00;12.18;;;;;;;;;;5016312;28;20537;-66
2021/07/15 00:13:10;;;;;;;38.92;13.70;;;;;;;;;;5016705;28;20022;-66
2021/07/15 00:15:38;;;;;;;36.60;14.30;;;;;;;;;;5016456;28;20092;-66
2021/07/15 00:18:05;;;;;;;27.08;13.43;;;;;;;;;;5017099;28;20375;-67
2021/07/15 00:20:34;;;;;;;30.20;15.07;;;;;;;;;;5017290;28;20018;-66
2021/07/15 00:23:01;;;;;;;40.90;14.55;;;;;;;;;;5017613;28;20064;-66
2021/07/15 00:25:26;;;;;;;29.92;13.07;;;;;;;;;;5015651;28;20010;-66
2021/07/15 00:27:53;;;;;;;36.20;15.38;;;;;;;;;;5016481;28;20022;-66
2021/07/15 00:30:19;;;;;;;28.80;14.10;;;;;;;;;;5031600;28;20593;-66
2021/07/15 00:32:46;;;;;;;29.33;14.52;;;;;;;;;;5016045;28;20109;-66
2021/07/15 00:35:13;;;;;;;37.95;16.38;;;;;;;;;;5016062;28;20053;-66
2021/07/15 00:37:39;;;;;;;29.67;13.98;;;;;;;;;;5015820;28;20022;-66
2021/07/15 00:40:07;;;;;;;27.55;13.05;;;;;;;;;;5016062;28;20022;-66
2021/07/15 00:42:33;;;;;;;30.70;13.73;;;;;;;;;;5015985;28;20036;-66
2021/07/15 00:44:59;;;;;;;28.98;14.30;;;;;;;;;;5016106;28;20069;-67
2021/07/15 00:47:25;;;;;;;33.38;14.77;;;;;;;;;;5016180;28;20029;-67
2021/07/15 00:49:51;;;;;;;26.52;13.80;;;;;;;;;;5015832;28;20030;-67
2021/07/15 00:52:18;;;;;;;24.58;14.07;;;;;;;;;;5015797;28;20105;-67
2021/07/15 00:54:44;;;;;;;36.53;14.70;;;;;;;;;;5015783;28;20034;-67
2021/07/15 00:57:10;;;;;;;35.35;14.77;;;;;;;;;;5015983;28;20363;-67
2021/07/15 00:59:37;;;;;;;35.10;14.07;;;;;;;;;;5015834;28;20099;-66
2021/07/15 01:02:03;;;;;;;34.95;15.75;;;;;;;;;;5015514;28;20022;-66
2021/07/15 01:04:29;;;;;;;34.30;14.43;;;;;;;;;;5015576;28;20110;-66
2021/07/15 01:06:56;;;;;;;30.67;14.90;;;;;;;;;;5013929;28;20725;-66
2021/07/15 01:09:22;;;;;;;25.42;14.02;;;;;;;;;;5013896;28;20026;-66
2021/07/15 01:11:56;;;;;;;24.70;14.23;;;;;;;;;;5014364;28;20022;-66
2021/07/15 01:14:26;;;;;;;25.45;13.38;;;;;;;;;;5013631;28;20409;-66
2021/07/15 01:16:59;;;;;;;28.20;14.50;;;;;;;;;;5013686;28;20025;-66
2021/07/15 01:19:43;;;;;;;28.42;14.23;;;;;;;;;;5012600;28;20475;-67
2021/07/15 01:22:11;;;;;;;28.27;13.98;;;;;;;;;;5014213;28;20022;-66
2021/07/15 01:24:47;;;;;;;34.90;16.02;;;;;;;;;;5028716;28;20014;-67
2021/07/15 01:27:21;;;;;;;32.92;15.38;;;;;;;;;;5013596;28;20431;-67
2021/07/15 01:30:06;;;;;;;31.38;15.05;;;;;;;;;;5013674;28;20076;-67
2021/07/15 01:32:47;;;;;;;30.20;15.48;;;;;;;;;;5013392;28;20025;-67
2021/07/15 01:35:15;;;;;;;29.65;15.30;;;;;;;;;;5028867;28;20032;-67
2021/07/15 01:37:44;;;;;;;22.67;13.95;;;;;;;;;;5013248;28;20022;-67
2021/07/15 01:40:12;;;;;;;23.27;14.40;;;;;;;;;;5028870;28;20088;-67
2021/07/15 01:42:38;;;;;;;30.67;14.32;;;;;;;;;;5013408;28;20080;-66
2021/07/15 01:45:05;;;;;;;26.35;14.15;;;;;;;;;;5013481;28;20018;-66
2021/07/15 01:47:32;;;;;;;24.27;13.57;;;;;;;;;;5013181;28;20379;-66
2021/07/15 01:49:58;;;;;;;24.23;14.02;;;;;;;;;;5013350;28;20072;-67
2021/07/15 01:52:25;;;;;;;29.10;14.30;;;;;;;;;;5013126;28;20429;-67
2021/07/15 01:54:52;;;;;;;25.50;13.80;;;;;;;;;;5012633;28;20347;-67
2021/07/15 01:57:20;;;;;;;23.35;13.65;;;;;;;;;;5013297;28;20026;-67
2021/07/15 01:59:46;;;;;;;25.83;13.02;;;;;;;;;;5012785;28;20026;-67
2021/07/15 02:02:13;;;;;;;31.58;15.52;;;;;;;;;;5013347;28;20021;-67
2021/07/15 02:04:41;;;;;;;31.65;15.25;;;;;;;;;;5012791;28;20053;-67
2021/07/15 02:07:07;;;;;;;27.58;15.90;;;;;;;;;;5012981;28;20457;-67
2021/07/15 02:09:33;;;;;;;34.75;15.43;;;;;;;;;;5012840;28;20022;-67
2021/07/15 02:12:00;;;;;;;25.95;15.38;;;;;;;;;;5012810;28;20108;-67
2021/07/15 02:14:27;;;;;;;28.98;15.98;;;;;;;;;;5029106;28;20017;-67
2021/07/15 02:16:53;;;;;;;26.88;15.90;;;;;;;;;;5014006;28;20486;-66
2021/07/15 02:19:21;;;;;;;25.50;15.48;;;;;;;;;;5014239;28;20041;-66
2021/07/15 02:21:47;;;;;;;27.08;16.45;;;;;;;;;;5013963;28;20045;-66
2021/07/15 02:24:15;;;;;;;34.25;16.80;;;;;;;;;;5013724;28;20398;-66
2021/07/15 02:26:43;;;;;;;27.58;15.25;;;;;;;;;;5013814;28;20017;-66
2021/07/15 02:29:08;;;;;;;29.33;15.80;;;;;;;;;;5013599;28;20049;-67
2021/07/15 02:31:42;;;;;;;31.15;15.80;;;;;;;;;;5013928;28;20386;-66
2021/07/15 02:34:14;;;;;;;31.77;15.18;;;;;;;;;;5013874;28;20018;-67
2021/07/15 02:36:41;;;;;;;25.13;13.73;;;;;;;;;;5013379;28;20084;-67
2021/07/15 02:39:09;;;;;;;23.40;14.23;;;;;;;;;;5013926;28;20033;-67
2021/07/15 02:41:36;;;;;;;25.95;15.05;;;;;;;;;;5013933;28;20440;-66
2021/07/15 02:44:02;;;;;;;27.42;14.93;;;;;;;;;;5013688;28;20034;-66
2021/07/15 02:46:29;;;;;;;23.95;13.95;;;;;;;;;;5013378;28;20461;-66
2021/07/15 02:48:55;;;;;;;27.17;14.77;;;;;;;;;;5013699;28;20360;-67
2021/07/15 02:51:22;;;;;;;30.85;15.93;;;;;;;;;;5013359;28;20423;-67
2021/07/15 02:53:48;;;;;;;34.17;16.00;;;;;;;;;;5013271;28;20025;-67
2021/07/15 02:56:21;;;;;;;39.60;16.20;;;;;;;;;;5013440;28;20057;-66
2021/07/15 02:58:57;;;;;;;36.42;17.85;;;;;;;;;;5013532;28;20060;-65
2021/07/15 03:01:24;;;;;;;33.85;16.98;;;;;;;;;;5013439;28;20020;-66
2021/07/15 03:04:00;;;;;;;35.20;16.85;;;;;;;;;;5013187;28;20057;-66
2021/07/15 03:06:40;;;;;;;36.28;16.55;;;;;;;;;;5012916;28;20050;-66
2021/07/15 03:09:11;;;;;;;30.52;16.25;;;;;;;;;;5013507;28;20410;-66
2021/07/15 03:11:52;;;;;;;29.67;15.30;;;;;;;;;;5013158;28;20566;-66
2021/07/15 03:14:18;;;;;;;32.03;15.52;;;;;;;;;;5013012;28;20379;-66
2021/07/15 03:16:44;;;;;;;39.15;15.85;;;;;;;;;;5013353;28;20046;-67
2021/07/15 03:19:11;;;;;;;31.83;14.13;;;;;;;;;;5013412;28;20056;-66
2021/07/15 03:21:40;;;;;;;27.45;13.68;;;;;;;;;;5012965;28;20029;-66
2021/07/15 03:24:07;;;;;;;;;;;;;;;;;;5013507;28;20017;-66
2021/07/15 03:26:33;;;;;;;29.05;12.68;;;;;;;;;;5012879;28;19913;-65
2021/07/15 03:29:00;;;;;;;27.17;13.20;;;;;;;;;;5012714;28;20033;-66
2021/07/15 03:31:27;;;;;;;18.20;11.25;;;;;;;;;;5012968;28;20064;-66
2021/07/15 03:33:54;;;;;;;22.60;13.23;;;;;;;;;;5012763;28;20014;-65
2021/07/15 03:36:21;;;;;;;24.23;13.52;;;;;;;;;;5013080;28;20372;-66
2021/07/15 03:38:46;;;;;;;31.23;14.15;;;;;;;;;;5013032;28;20356;-66
2021/07/15 03:41:14;;;;;;;28.42;14.43;;;;;;;;;;5012883;28;20160;-66
2021/07/15 03:43:41;;;;;;;22.45;11.95;;;;;;;;;;5012592;28;20498;-66
2021/07/15 03:46:07;;;;;;;22.58;11.93;;;;;;;;;;5012900;28;20467;-66
2021/07/15 03:48:37;;;;;;;34.75;12.02;;;;;;;;;;5012472;28;20064;-65
2021/07/15 03:51:05;;;;;;;18.80;10.07;;;;;;;;;;5013187;28;20112;-67
2021/07/15 03:53:30;;;;;;;16.10;9.23;;;;;;;;;;5012862;28;20386;-66
2021/07/15 03:55:58;;;;;;;23.00;9.32;;;;;;;;;;5012421;28;20026;-66
2021/07/15 03:58:25;;;;;;;18.88;9.05;;;;;;;;;;5012391;28;20380;-66
2021/07/15 04:00:55;;;;;;;19.55;8.05;;;;;;;;;;5012531;28;20014;-66
2021/07/15 04:03:21;;;;;;;17.60;7.80;;;;;;;;;;5012893;28;20022;-66
2021/07/15 04:05:49;;;;;;;24.23;7.68;;;;;;;;;;5012420;28;20056;-66
2021/07/15 04:08:17;;;;;;;15.02;7.32;;;;;;;;;;5012425;28;20505;-66
2021/07/15 04:10:43;;;;;;;17.00;6.95;;;;;;;;;;5012215;28;20022;-66
2021/07/15 04:13:10;;;;;;;13.82;6.00;;;;;;;;;;5012762;28;20030;-66
2021/07/15 04:15:45;;;;;;;13.88;6.40;;;;;;;;;;5012721;28;20057;-66
2021/07/15 04:18:12;;;;;;;15.32;6.55;;;;;;;;;;5012809;28;20030;-66
2021/07/15 04:20:39;;;;;;;15.88;6.05;;;;;;;;;;5012486;28;20026;-66
2021/07/15 04:23:06;;;;;;;14.00;6.28;;;;;;;;;;5012325;28;20026;-66
2021/07/15 04:25:32;;;;;;;17.90;6.25;;;;;;;;;;5013737;28;20029;-65
2021/07/15 04:28:01;;;;;;;16.92;6.40;;;;;;;;;;5013762;28;20022;-65
2021/07/15 04:30:28;;;;;;;19.33;6.45;;;;;;;;;;5013423;28;20026;-65
2021/07/15 04:33:03;;;;;;;25.23;7.05;;;;;;;;;;5012193;28;20022;-65
2021/07/15 04:35:29;;;;;;;16.95;7.18;;;;;;;;;;5012599;28;20422;-65
2021/07/15 04:37:56;;;;;;;15.60;9.20;;;;;;;;;;5012279;28;20026;-65
2021/07/15 04:40:23;;;;;;;20.90;7.15;;;;;;;;;;5011979;28;20033;-66
2021/07/15 04:42:51;;;;;;;19.42;7.07;;;;;;;;;;5010735;28;20022;-66
2021/07/15 04:45:17;;;;;;;19.88;7.85;;;;;;;;;;5012288;28;20018;-66
2021/07/15 04:47:45;;;;;;;19.30;7.72;;;;;;;;;;5012158;28;20010;-66
2021/07/15 04:50:13;;;;;;;21.75;8.90;;;;;;;;;;5012318;28;20017;-66
2021/07/15 04:52:41;;;;;;;22.58;7.47;;;;;;;;;;5013485;28;20018;-65
2021/07/15 04:55:08;;;;;;;14.00;5.82;;;;;;;;;;5015864;28;20036;-65
2021/07/15 04:57:37;;;;;;;14.05;5.80;;;;;;;;;;5015498;28;20494;-66
2021/07/15 05:00:08;;;;;;;11.10;5.60;;;;;;;;;;5015667;28;20513;-65
2021/07/15 05:02:35;;;;;;;12.70;5.82;;;;;;;;;;5015203;28;20014;-66
2021/07/15 05:05:02;;;;;;;11.45;5.40;;;;;;;;;;5015367;28;20072;-65
2021/07/15 05:07:28;;;;;;;17.92;5.85;;;;;;;;;;5015878;28;20085;-66
2021/07/15 05:09:54;;;;;;;13.73;5.68;;;;;;;;;;5015371;28;20034;-65
2021/07/15 05:12:20;;;;;;;15.68;5.72;;;;;;;;;;5015384;28;20394;-66
2021/07/15 05:14:46;;;;;;;14.10;5.28;;;;;;;;;;5016016;28;20021;-65
2021/07/15 05:17:11;;;;;;;9.30;4.68;;;;;;;;;;5015661;28;20028;-64
2021/07/15 05:19:38;;;;;;;12.52;5.60;;;;;;;;;;5015321;28;20387;-64
2021/07/15 05:22:04;;;;;;;14.93;5.22;;;;;;;;;;5015443;28;20022;-65
2021/07/15 05:24:30;;;;;;;12.98;4.82;;;;;;;;;;5015314;28;20115;-65
2021/07/15 05:26:56;;;;;;;13.77;5.30;;;;;;;;;;5014896;28;20379;-65
2021/07/15 05:29:22;;;;;;;13.60;5.50;;;;;;;;;;5015209;28;20025;-65
2021/07/15 05:31:47;;;;;;;10.05;5.40;;;;;;;;;;5014938;28;20028;-65
2021/07/15 05:34:14;;;;;;;13.43;5.47;;;;;;;;;;5014074;28;20475;-67
2021/07/15 05:36:40;;;;;;;12.60;4.90;;;;;;;;;;5014650;28;20034;-66
2021/07/15 05:39:06;;;;;;;10.35;4.93;;;;;;;;;;5014884;28;20037;-71
2021/07/15 05:41:33;;;;;;;10.35;5.38;;;;;;;;;;5014706;28;20483;-68
2021/07/15 05:43:59;;;;;;;21.38;5.88;;;;;;;;;;5014072;28;20021;-69
2021/07/15 05:46:24;;;;;;;13.77;5.22;;;;;;;;;;5014534;28;20390;-69
2021/07/15 05:48:50;;;;;;;16.80;5.25;;;;;;;;;;5014712;28;20022;-69
2021/07/15 05:51:16;;;;;;;9.48;5.10;;;;;;;;;;5014618;28;20042;-70
2021/07/15 05:53:41;;;;;;;11.77;4.78;;;;;;;;;;5014897;28;20026;-68
2021/07/15 05:56:07;;;;;;;14.35;5.47;;;;;;;;;;5018857;28;20045;-66
2021/07/15 05:58:32;;;;;;;14.25;5.88;;;;;;;;;;5014023;28;20014;-67
2021/07/15 06:00:58;;;;;;;11.15;4.38;;;;;;;;;;5014179;28;20079;-68
2021/07/15 06:03:24;;;;;;;9.35;4.60;;;;;;;;;;5011517;28;20026;-69
2021/07/15 06:05:49;;;;;;;13.40;4.75;;;;;;;;;;5012394;28;20053;-67
2021/07/15 06:08:15;;;;;;;7.40;3.55;;;;;;;;;;5013791;28;20021;-67
2021/07/15 06:10:40;;;;;;;17.00;3.95;;;;;;;;;;5029178;28;20020;-67
2021/07/15 06:13:07;;;;;;;10.65;3.50;;;;;;;;;;5013587;28;20061;-67
2021/07/15 06:15:32;;;;;;;5.97;3.42;;;;;;;;;;5014418;28;20034;-69
2021/07/15 06:17:59;;;;;;;5.88;3.45;;;;;;;;;;5014202;28;20389;-70
2021/07/15 06:20:28;;;;;;;7.47;2.95;;;;;;;;;;5013459;28;20105;-72
2021/07/15 06:22:53;;;;;;;10.87;3.00;;;;;;;;;;5014483;28;20013;-74
2021/07/15 06:25:20;;;;;;;6.45;2.92;;;;;;;;;;5014312;28;20247;-73
2021/07/15 06:27:46;;;;;;;7.70;3.47;;;;;;;;;;5013501;28;20010;-70
2021/07/15 06:30:12;;;;;;;5.35;2.58;;;;;;;;;;5013922;28;20520;-67
2021/07/15 06:32:38;;;;;;;184.57;169.38;;;;;;;;;;5013871;28;20052;-67
2021/07/15 06:35:04;;;;;;;18.73;4.82;;;;;;;;;;5015085;28;20065;-66
2021/07/15 06:37:33;;;;;;;14.68;3.20;;;;;;;;;;5013912;28;20024;-67
2021/07/15 06:39:59;;;;;;;9.00;2.88;;;;;;;;;;5013782;28;20045;-67
2021/07/15 06:42:26;;;;;;;79.63;63.83;;;;;;;;;;5012244;28;20076;-67
2021/07/15 06:44:52;;;;;;;30.02;5.20;;;;;;;;;;5012263;28;20060;-66
2021/07/15 06:47:18;;;;;;;25.15;7.50;;;;;;;;;;5013928;28;20022;-66
2021/07/15 06:49:44;;;;;;;84.35;76.63;;;;;;;;;;5012575;28;20020;-67
2021/07/15 06:52:10;;;;;;;221.82;205.68;;;;;;;;;;5013498;28;20018;-67
2021/07/15 06:54:37;;;;;;;692.50;634.03;;;;;;;;;;5013246;28;20025;-67
2021/07/15 06:57:02;;;;;;;13.50;2.90;;;;;;;;;;5013123;28;20479;-68
2021/07/15 06:59:28;;;;;;;11.93;3.67;;;;;;;;;;5013771;28;20026;-67
2021/07/15 07:01:53;;;;;;;18.45;4.15;;;;;;;;;;5013611;28;20460;-68
2021/07/15 07:04:19;;;;;;;34.22;6.30;;;;;;;;;;5012701;28;20022;-68
2021/07/15 07:06:44;;;;;;;19.15;3.95;;;;;;;;;;5012961;28;20052;-66
2021/07/15 07:09:10;;;;;;;17.95;2.97;;;;;;;;;;5013714;28;20021;-67
2021/07/15 07:11:35;;;;;;;21.75;3.80;;;;;;;;;;5013237;28;20026;-69
2021/07/15 07:14:01;;;;;;;14.45;3.55;;;;;;;;;;5013004;28;20018;-67
2021/07/15 07:16:28;;;;;;;19.75;4.55;;;;;;;;;;5013105;28;20033;-67
2021/07/15 07:18:54;;;;;;;32.33;7.68;;;;;;;;;;5012837;28;20054;-67
2021/07/15 07:21:20;;;;;;;29.40;7.25;;;;;;;;;;5013321;28;20506;-67
2021/07/15 07:23:46;;;;;;;47.97;10.45;;;;;;;;;;5013670;28;20136;-69
2021/07/15 07:26:12;;;;;;;31.90;9.18;;;;;;;;;;5013197;28;20018;-69
2021/07/15 07:28:37;;;;;;;16.67;4.63;;;;;;;;;;5012960;28;20025;-67
2021/07/15 07:31:03;;;;;;;16.15;5.22;;;;;;;;;;5013671;28;20430;-67
2021/07/15 07:33:29;;;;;;;20.80;4.80;;;;;;;;;;5012486;28;20010;-68
2021/07/15 07:35:55;;;;;;;18.77;4.03;;;;;;;;;;5012713;28;20539;-68
2021/07/15 07:38:21;;;;;;;14.45;4.30;;;;;;;;;;5013116;28;20060;-67
2021/07/15 07:40:47;;;;;;;12.90;3.80;;;;;;;;;;5012787;28;20026;-67
2021/07/15 07:43:13;;;;;;;172.55;72.18;;;;;;;;;;5012485;28;20017;-67
2021/07/15 07:45:38;;;;;;;125.95;38.97;;;;;;;;;;5012660;28;20018;-67
2021/07/15 07:48:05;;;;;;;19.67;8.27;;;;;;;;;;5012967;28;20546;-68
2021/07/15 07:50:31;;;;;;;15.52;4.43;;;;;;;;;;5013510;28;20072;-68
2021/07/15 07:52:57;;;;;;;12.65;3.80;;;;;;;;;;5012511;28;20568;-68
2021/07/15 07:55:24;;;;;;;10.23;3.20;;;;;;;;;;5012744;28;20026;-67
2021/07/15 07:57:50;;;;;;;7.30;2.97;;;;;;;;;;5012243;28;20060;-67
2021/07/15 08:00:16;;;;;;;12.95;4.15;;;;;;;;;;5012611;28;20371;-67
2021/07/15 08:02:43;;;;;;;8.73;3.00;;;;;;;;;;5012763;28;20022;-68
2021/07/15 08:05:10;;;;;;;14.88;3.97;;;;;;;;;;5012043;28;20132;-67
2021/07/15 08:07:38;;;;;;;13.30;3.42;;;;;;;;;;5012880;28;20033;-66
2021/07/15 08:10:04;;;;;;;13.15;2.90;;;;;;;;;;5012766;28;20022;-68
2021/07/15 08:12:30;;;;;;;13.75;4.53;;;;;;;;;;5014385;28;20033;-67
2021/07/15 08:14:56;;;;;;;16.50;3.05;;;;;;;;;;5012380;28;20371;-67
2021/07/15 08:17:22;;;;;;;10.50;3.05;;;;;;;;;;5012783;28;20100;-67
2021/07/15 08:19:49;;;;;;;12.70;2.95;;;;;;;;;;5012115;28;20113;-68
2021/07/15 08:22:15;;;;;;;9.13;2.95;;;;;;;;;;5012390;28;20018;-67
2021/07/15 08:24:40;;;;;;;16.15;5.00;;;;;;;;;;5012196;28;20010;-68
2021/07/15 08:27:07;;;;;;;11.32;3.13;;;;;;;;;;5029585;28;20018;-68
2021/07/15 08:29:32;;;;;;;9.85;3.17;;;;;;;;;;5024008;28;20025;-69
2021/07/15 08:31:59;;;;;;;12.20;3.10;;;;;;;;;;5022817;28;20022;-68
2021/07/15 08:34:24;;;;;;;9.65;3.13;;;;;;;;;;5022344;28;20034;-67
2021/07/15 08:36:50;;;;;;;15.60;3.65;;;;;;;;;;5026909;28;20029;-67
2021/07/15 08:39:16;;;;;;;12.60;3.72;;;;;;;;;;5027799;28;20030;-67
2021/07/15 08:41:44;;;;;;;16.52;3.95;;;;;;;;;;5027619;28;20021;-69
2021/07/15 08:44:12;;;;;;;14.68;3.55;;;;;;;;;;5017372;28;20026;-67
2021/07/15 08:46:38;;;;;;;5.53;2.10;;;;;;;;;;5016810;28;20026;-67
2021/07/15 08:49:05;;;;;;;14.70;2.97;;;;;;;;;;5017786;28;20034;-67
2021/07/15 08:51:30;;;;;;;6.05;2.10;;;;;;;;;;5031897;28;20470;-67
2021/07/15 08:53:58;;;;;;;6.15;2.20;;;;;;;;;;5016291;28;20072;-68
2021/07/15 08:59:10;;;;;;;8.43;2.03;;;;;;;;;;5016426;28;20041;-67
2021/07/15 09:01:36;;;;;;;4.57;1.92;;;;;;;;;;5015654;28;20025;-68
2021/07/15 09:04:02;;;;;;;4.25;1.90;;;;;;;;;;5015474;28;20022;-67
2021/07/15 09:06:29;;;;;;;10.05;2.63;;;;;;;;;;5015502;28;20077;-67
2021/07/15 09:08:55;;;;;;;6.05;2.05;;;;;;;;;;5016502;28;20017;-67
2021/07/15 09:11:20;;;;;;;8.23;2.22;;;;;;;;;;5015447;28;20478;-67
2021/07/15 09:13:47;;;;;;;4.95;1.95;;;;;;;;;;5015964;28;20054;-67
2021/07/15 09:16:14;;;;;;;6.63;2.03;;;;;;;;;;5015455;28;20026;-67
2021/07/15 09:18:58;;;;;;;4.57;1.58;;;;;;;;;;5013530;28;20051;-67
2021/07/15 09:21:30;;;;;;;5.78;2.20;;;;;;;;;;5015665;28;20022;-65
2021/07/15 09:23:55;;;;;;;8.43;1.90;;;;;;;;;;5015682;28;20018;-67
2021/07/15 09:26:21;;;;;;;4.82;2.15;;;;;;;;;;5014634;28;20010;-67
2021/07/15 09:28:47;;;;;;;79.28;6.18;;;;;;;;;;5015203;28;20021;-67
2021/07/15 09:31:18;;;;;;;8.15;1.80;;;;;;;;;;5017281;28;20049;-67
2021/07/15 09:33:44;;;;;;;5.57;1.92;;;;;;;;;;5016078;28;20116;-71
2021/07/15 09:36:16;;;;;;;4.70;1.70;;;;;;;;;;5022537;28;20033;-70
2021/07/15 09:38:43;;;;;;;5.97;1.83;;;;;;;;;;5014986;28;20025;-69
2021/07/15 09:41:08;;;;;;;5.40;2.17;;;;;;;;;;5014468;28;20025;-69
2021/07/15 09:43:35;;;;;;;4.10;1.60;;;;;;;;;;5014837;28;20013;-70
2021/07/15 09:46:16;;;;;;;9.23;1.60;;;;;;;;;;5014550;28;20453;-71
2021/07/15 09:49:02;;;;;;;6.55;1.60;;;;;;;;;;5014589;28;20025;-70
2021/07/15 09:51:36;;;;;;;4.93;1.88;;;;;;;;;;5014628;28;20022;-70
2021/07/15 09:54:04;;;;;;;5.28;2.00;;;;;;;;;;5014236;28;20534;-71
2021/07/15 09:56:40;;;;;;;10.02;2.17;;;;;;;;;;5014280;28;20037;-70
2021/07/15 09:59:05;;;;;;;3.70;1.50;;;;;;;;;;5014130;28;20429;-70
2021/07/15 10:01:30;;;;;;;6.60;1.58;;;;;;;;;;5014662;28;20026;-72
2021/07/15 10:04:02;;;;;;;4.25;1.98;;;;;;;;;;5014108;28;20018;-70
2021/07/15 10:06:41;;;;;;;4.80;1.65;;;;;;;;;;5014066;28;20483;-71
2021/07/15 10:09:08;;;;;;;5.95;2.13;;;;;;;;;;5013920;28;20029;-70
2021/07/15 10:11:36;;;;;;;3.75;1.52;;;;;;;;;;5014391;28;20084;-71
2021/07/15 10:14:09;;;;;;;6.65;1.55;;;;;;;;;;5013983;28;20014;-70
2021/07/15 10:16:35;;;;;;;7.43;1.50;;;;;;;;;;5013657;28;20049;-70
2021/07/15 10:19:01;;;;;;;4.15;1.60;;;;;;;;;;5013946;28;20022;-69
2021/07/15 10:21:28;;;;;;;6.00;2.20;;;;;;;;;;5012214;28;20021;-70
2021/07/15 10:23:54;;;;;;;5.55;1.65;;;;;;;;;;5013414;28;20467;-70
2021/07/15 10:26:20;;;;;;;4.15;1.52;;;;;;;;;;5013921;28;20022;-72
2021/07/15 10:28:46;;;;;;;4.50;1.55;;;;;;;;;;5013702;28;20022;-71
2021/07/15 10:31:12;;;;;;;4.85;1.45;;;;;;;;;;5013418;28;20121;-72
2021/07/15 10:33:38;;;;;;;5.70;1.60;;;;;;;;;;5013919;28;20097;-72
2021/07/15 10:36:04;;;;;;;3.47;1.20;;;;;;;;;;5014325;28;20029;-71
2021/07/15 10:38:31;;;;;;;3.33;1.40;;;;;;;;;;5013759;28;20036;-69
2021/07/15 10:40:57;;;;;;;4.63;1.27;;;;;;;;;;5013771;28;20018;-73
2021/07/15 10:43:23;;;;;;;5.70;1.30;;;;;;;;;;5014047;28;20018;-74
2021/07/15 10:45:51;;;;;;;6.10;1.38;;;;;;;;;;5013459;28;20018;-70
2021/07/15 10:48:18;;;;;;;3.40;1.05;;;;;;;;;;5013710;28;20367;-69
2021/07/15 10:50:44;;;;;;;7.45;1.30;;;;;;;;;;5013138;28;20041;-69
2021/07/15 10:53:12;;;;;;;4.88;1.42;;;;;;;;;;5013623;28;20026;-69
2021/07/15 10:55:38;;;;;;;5.78;1.65;;;;;;;;;;5011278;28;20188;-67
2021/07/15 10:58:04;;;;;;;3.03;1.52;;;;;;;;;;5014255;28;20058;-68
2021/07/15 11:00:29;;;;;;;5.82;2.15;;;;;;;;;;5013643;28;20030;-67
2021/07/15 11:03:15;;;;;;;4.88;1.67;;;;;;;;;;5010992;28;20124;-67
2021/07/15 11:05:53;;;;;;;5.47;1.58;;;;;;;;;;5011705;28;20037;-64
2021/07/15 11:08:19;;;;;;;4.70;1.98;;;;;;;;;;5011061;28;20049;-65
2021/07/15 11:10:59;;;;;;;6.32;1.88;;;;;;;;;;5013069;28;20428;-67
2021/07/15 11:13:25;;;;;;;;;;;;;;;;;;5012510;28;20119;-66
2021/07/15 11:15:55;;;;;;;7.65;2.30;;;;;;;;;;5012645;28;19920;-68
2021/07/15 11:18:52;;;;;;;8.75;2.03;;;;;;;;;;5013000;28;20145;-65
2021/07/15 11:21:30;;;;;;;9.10;2.08;;;;;;;;;;5012822;28;20022;-65
2021/07/15 11:24:09;;;;;;;8.73;2.00;;;;;;;;;;5012855;28;20036;-66
2021/07/15 11:26:41;;;;;;;7.07;1.83;;;;;;;;;;5012835;28;20378;-67
2021/07/15 11:29:12;;;;;;;7.38;2.25;;;;;;;;;;5012824;28;20026;-67
2021/07/15 11:31:42;;;;;;;7.38;2.25;;;;;;;;;;5012576;28;20100;-67
2021/07/15 11:34:08;;;;;;;8.05;2.00;;;;;;;;;;5013107;28;20022;-66
2021/07/15 11:36:35;;;;;;;6.25;1.67;;;;;;;;;;5012599;28;20378;-69
2021/07/15 11:39:04;;;;;;;5.15;1.77;;;;;;;;;;5012594;28;20018;-65
2021/07/15 11:41:43;;;;;;;5.15;1.98;;;;;;;;;;5013101;28;20112;-66
2021/07/15 11:44:09;;;;;;;6.13;2.10;;;;;;;;;;5012677;28;20018;-66
2021/07/15 11:46:36;;;;;;;10.32;2.22;;;;;;;;;;5012293;28;20072;-66
2021/07/15 11:49:21;;;;;;;6.55;1.90;;;;;;;;;;5012947;28;20014;-65
2021/07/15 11:51:58;;;;;;;5.07;1.40;;;;;;;;;;5012614;28;20033;-65
2021/07/15 11:54:35;;;;;;;10.43;1.88;;;;;;;;;;5012294;28;20379;-67
2021/07/15 11:57:23;;;;;;;7.32;1.90;;;;;;;;;;5012558;28;20513;-66
2021/07/15 11:59:51;;;;;;;10.18;2.03;;;;;;;;;;5012814;28;20022;-66
2021/07/15 12:02:24;;;;;;;7.28;1.80;;;;;;;;;;5012333;28;20029;-66
2021/07/15 12:05:12;;;;;;;4.63;1.90;;;;;;;;;;5016653;28;20021;-67
2021/07/15 12:07:39;;;;;;;8.07;2.47;;;;;;;;;;5016254;28;20467;-64
2021/07/15 12:10:06;;;;;;;8.23;1.67;;;;;;;;;;5016991;28;20022;-67
2021/07/15 12:12:32;;;;;;;2.88;1.17;;;;;;;;;;5017068;28;20053;-66
2021/07/15 12:14:58;;;;;;;10.45;2.20;;;;;;;;;;5025067;28;20552;-65
2021/07/15 12:17:24;;;;;;;4.78;1.52;;;;;;;;;;5025808;28;20028;-66
2021/07/15 12:19:53;;;;;;;6.30;1.85;;;;;;;;;;5017109;28;20018;-65
2021/07/15 12:22:20;;;;;;;7.15;2.38;;;;;;;;;;5022196;28;20378;-65
2021/07/15 12:24:49;;;;;;;6.28;1.90;;;;;;;;;;5016906;28;20068;-65
2021/07/15 12:27:15;;;;;;;5.72;1.95;;;;;;;;;;5015688;28;20030;-65
2021/07/15 12:29:59;;;;;;;4.15;2.00;;;;;;;;;;5014939;28;20454;-66
2021/07/15 12:32:28;;;;;;;4.22;1.73;;;;;;;;;;5014685;28;20137;-66
2021/07/15 12:34:53;;;;;;;;;;;;;;;;;;5012600;28;20034;-68
2021/07/15 12:37:19;;;;;;;5.75;1.77;;;;;;;;;;5018271;28;20121;-68
2021/07/15 12:39:58;;;;;;;5.47;1.70;;;;;;;;;;5027280;28;20025;-67
2021/07/15 12:42:23;;;;;;;6.53;1.77;;;;;;;;;;5011760;28;20027;-67
2021/07/15 12:44:49;;;;;;;8.30;2.03;;;;;;;;;;5015961;28;20018;-68
2021/07/15 12:47:15;;;;;;;9.45;1.90;;;;;;;;;;5022026;28;20458;-68
2021/07/15 12:49:40;;;;;;;5.30;1.95;;;;;;;;;;5021095;28;20018;-69
2021/07/15 12:52:06;;;;;;;7.07;1.92;;;;;;;;;;5016655;28;20391;-70
2021/07/15 12:54:34;;;;;;;7.63;2.03;;;;;;;;;;5016558;28;20099;-69
2021/07/15 12:57:03;;;;;;;5.20;1.63;;;;;;;;;;5012489;28;20030;-68
2021/07/15 12:59:33;;;;;;;5.93;1.83;;;;;;;;;;5016420;28;20021;-68
2021/07/15 13:02:00;;;;;;;3.47;1.65;;;;;;;;;;5016295;28;20022;-69
2021/07/15 13:04:26;;;;;;;5.53;1.73;;;;;;;;;;5011914;28;20029;-68
2021/07/15 13:06:52;;;;;;;3.70;1.67;;;;;;;;;;4996227;28;20058;-68
2021/07/15 13:09:27;;;;;;;5.57;1.98;;;;;;;;;;4998327;28;20010;-67
2021/07/15 13:14:41;;;;;;;5.00;1.80;;;;;;;;;;5013693;28;20037;-70
2021/07/15 13:17:06;;;;;;;10.25;2.55;;;;;;;;;;5014071;28;20022;-66
2021/07/15 13:19:36;;;;;;;6.47;2.00;;;;;;;;;;5002039;28;20064;-67
2021/07/15 13:22:15;;;;;;;5.50;1.90;;;;;;;;;;4999328;28;20327;-66
2021/07/15 13:24:42;;;;;;;7.57;2.53;;;;;;;;;;5008819;28;20018;-68
2021/07/15 13:27:12;;;;;;;7.35;2.33;;;;;;;;;;5010869;28;20534;-65
2021/07/15 13:29:38;;;;;;;9.93;2.25;;;;;;;;;;5011333;28;20030;-63
2021/07/15 13:32:11;;;;;;;8.45;1.85;;;;;;;;;;5014238;28;20390;-68
2021/07/15 13:34:39;;;;;;;5.72;2.05;;;;;;;;;;5013146;28;20030;-68
2021/07/15 13:37:05;;;;;;;10.80;2.65;;;;;;;;;;5012541;28;20022;-68
2021/07/15 13:39:34;;;;;;;8.43;2.05;;;;;;;;;;5014556;28;20136;-70
2021/07/15 13:42:00;;;;;;;7.07;2.20;;;;;;;;;;5015340;28;20479;-71
2021/07/15 13:44:25;;;;;;;10.30;2.42;;;;;;;;;;5012946;28;20037;-65
2021/07/15 13:46:59;;;;;;;8.90;1.95;;;;;;;;;;5013529;28;20022;-67
2021/07/15 13:49:24;;;;;;;5.20;1.70;;;;;;;;;;5011717;28;20025;-66
2021/07/15 13:52:01;;;;;;;11.60;2.88;;;;;;;;;;5013885;28;20022;-67
2021/07/15 13:54:26;;;;;;;11.82;2.45;;;;;;;;;;5013658;28;20383;-68
2021/07/15 13:56:55;;;;;;;9.88;2.83;;;;;;;;;;5013076;28;20026;-66
2021/07/15 13:59:21;;;;;;;8.40;1.67;;;;;;;;;;5013249;28;20056;-65
2021/07/15 14:02:02;;;;;;;8.38;1.80;;;;;;;;;;5013815;28;20076;-65
2021/07/15 14:04:27;;;;;;;3.00;1.15;;;;;;;;;;5012752;28;20128;-66
2021/07/15 14:06:54;;;;;;;3.58;1.40;;;;;;;;;;5013261;28;20522;-64
2021/07/15 14:09:20;;;;;;;4.47;1.38;;;;;;;;;;5012519;28;20120;-65
2021/07/15 14:11:46;;;;;;;6.03;1.50;;;;;;;;;;5013580;28;20113;-66
2021/07/15 14:14:12;;;;;;;5.85;1.48;;;;;;;;;;5012303;28;20474;-66
2021/07/15 14:16:38;;;;;;;5.28;1.48;;;;;;;;;;5013257;28;20033;-66
2021/07/15 14:19:05;;;;;;;5.30;1.92;;;;;;;;;;5012417;28;20085;-65
2021/07/15 14:21:31;;;;;;;9.23;1.80;;;;;;;;;;5013398;28;20474;-66
2021/07/15 14:23:57;;;;;;;3.28;1.35;;;;;;;;;;5012784;28;20124;-67
2021/07/15 14:26:23;;;;;;;7.43;1.58;;;;;;;;;;5012343;28;20022;-65
2021/07/15 14:28:48;;;;;;;3.05;1.48;;;;;;;;;;5012214;28;20033;-64
2021/07/15 14:31:14;;;;;;;5.45;1.67;;;;;;;;;;5012416;28;20018;-63
2021/07/15 14:33:39;;;;;;;5.43;1.50;;;;;;;;;;5010349;28;20022;-63
2021/07/15 14:36:05;;;;;;;6.25;1.65;;;;;;;;;;5013718;28;20121;-64
2021/07/15 14:38:32;;;;;;;4.47;1.23;;;;;;;;;;5013373;28;20050;-64
2021/07/15 14:40:58;;;;;;;4.15;1.25;;;;;;;;;;5013935;28;20064;-64